createdAt,value
2023-07-11T00:00:48.845Z,68.75
2023-07-11T00:03:34.231Z,68.75
2023-07-11T00:06:20.847Z,69.12
2023-07-11T00:09:06.726Z,68.40
2023-07-11T00:11:52.343Z,67.93
2023-07-11T00:14:37.502Z,68.15
2023-07-11T00:17:23.016Z,67.98
2023-07-11T00:20:09.124Z,68.12
2023-07-11T00:22:54.404Z,67.82
2023-07-11T00:25:39.523Z,67.67
2023-07-11T00:28:25.078Z,68.13
2023-07-11T00:31:10.271Z,68.02
2023-07-11T00:33:56.246Z,68.07
2023-07-11T00:36:41.509Z,67.97
2023-07-11T00:39:31.959Z,67.86
2023-07-11T00:42:17.448Z,67.89
2023-07-11T00:45:04.172Z,68.00
2023-07-11T00:47:49.444Z,67.86
2023-07-11T00:50:34.702Z,67.80
2023-07-11T00:53:20.243Z,67.72
2023-07-11T00:56:09.036Z,68.17
2023-07-11T00:58:55.043Z,68.98
2023-07-11T01:01:44.096Z,69.64
2023-07-11T01:04:30.546Z,69.16
2023-07-11T01:07:19.639Z,69.10
2023-07-11T01:10:06.053Z,69.18
2023-07-11T01:12:58.740Z,69.09
2023-07-11T01:15:44.055Z,69.24
2023-07-11T01:18:29.382Z,70.24
2023-07-11T01:21:19.559Z,70.52
2023-07-11T01:24:05.558Z,69.83
2023-07-11T01:26:51.026Z,69.31
2023-07-11T01:29:37.201Z,69.42
2023-07-11T01:32:22.573Z,69.57
2023-07-11T01:35:08.688Z,70.01
2023-07-11T01:37:54.610Z,70.66
2023-07-11T01:40:39.792Z,69.92
2023-07-11T01:43:25.090Z,69.57
2023-07-11T01:46:10.454Z,69.88
2023-07-11T01:48:56.197Z,69.94
2023-07-11T01:51:45.727Z,70.82
2023-07-11T01:54:31.479Z,70.65
2023-07-11T01:57:17.782Z,71.20
2023-07-11T02:00:03.350Z,70.65
2023-07-11T02:02:48.844Z,70.54
2023-07-11T02:05:34.037Z,70.66
2023-07-11T02:08:19.516Z,71.06
2023-07-11T02:11:05.003Z,70.40
2023-07-11T02:13:50.414Z,70.49
2023-07-11T02:16:35.479Z,70.25
2023-07-11T02:19:23.262Z,70.59
2023-07-11T02:22:09.299Z,71.49
2023-07-11T02:24:54.802Z,72.21
2023-07-11T02:27:40.040Z,71.89
2023-07-11T02:30:25.344Z,72.08
2023-07-11T02:33:10.781Z,71.82
2023-07-11T02:35:56.038Z,71.82
2023-07-11T02:38:41.394Z,71.62
2023-07-11T02:41:27.449Z,71.35
2023-07-11T02:44:12.655Z,71.41
2023-07-11T02:46:58.054Z,71.53
2023-07-11T02:49:43.364Z,70.94
2023-07-11T02:52:29.057Z,71.16
2023-07-11T02:55:14.554Z,71.20
2023-07-11T02:58:00.427Z,71.28
2023-07-11T03:00:50.259Z,71.50
2023-07-11T03:03:35.714Z,71.50
2023-07-11T03:06:21.131Z,71.40
2023-07-11T03:09:06.552Z,72.29
2023-07-11T03:11:52.398Z,73.52
2023-07-11T03:14:37.610Z,74.32
2023-07-11T03:17:23.149Z,74.21
2023-07-11T03:20:09.236Z,73.95
2023-07-11T03:22:54.450Z,73.45
2023-07-11T03:25:39.934Z,73.97
2023-07-11T03:28:25.246Z,73.50
2023-07-11T03:31:10.885Z,73.24
2023-07-11T03:33:55.966Z,73.24
2023-07-11T03:36:41.323Z,73.08
2023-07-11T03:39:26.789Z,72.83
2023-07-11T03:42:12.340Z,73.47
2023-07-11T03:44:57.376Z,73.53
2023-07-11T03:47:42.858Z,72.39
2023-07-11T03:50:28.077Z,72.76
2023-07-11T03:53:13.813Z,72.88
2023-07-11T03:55:59.260Z,73.03
2023-07-11T03:58:44.418Z,73.05
2023-07-11T04:01:29.811Z,73.00
2023-07-11T04:04:15.132Z,72.66
2023-07-11T04:07:00.671Z,72.27
2023-07-11T04:09:46.354Z,72.16
2023-07-11T04:12:32.071Z,71.49
2023-07-11T04:15:18.050Z,70.88
2023-07-11T04:18:03.889Z,70.17
2023-07-11T04:20:48.987Z,69.75
2023-07-11T04:23:34.420Z,69.34
2023-07-11T04:26:19.660Z,69.10
2023-07-11T04:29:04.908Z,69.86
2023-07-11T04:31:50.311Z,69.32
2023-07-11T04:34:35.491Z,69.49
2023-07-11T04:37:21.368Z,69.17
2023-07-11T04:40:07.318Z,70.86
2023-07-11T04:42:52.891Z,69.86
2023-07-11T04:45:38.149Z,69.11
2023-07-11T04:48:23.586Z,68.46
2023-07-11T04:51:09.714Z,67.75
2023-07-11T04:53:55.411Z,70.14
2023-07-11T04:56:42.261Z,71.32
2023-07-11T04:59:27.818Z,69.93
2023-07-11T05:02:13.333Z,66.84
2023-07-11T05:04:58.959Z,69.75
2023-07-11T05:07:44.143Z,71.39
2023-07-11T05:10:29.553Z,70.99
2023-07-11T05:13:15.148Z,72.36
2023-07-11T05:16:08.968Z,70.38
2023-07-11T05:18:57.279Z,69.52
2023-07-11T05:21:42.488Z,68.72
2023-07-11T05:24:28.060Z,70.22
2023-07-11T05:27:13.233Z,69.67
2023-07-11T05:29:58.523Z,68.91
2023-07-11T05:32:43.837Z,70.47
2023-07-11T05:35:29.018Z,69.49
2023-07-11T05:38:20.900Z,69.53
2023-07-11T05:41:06.532Z,69.50
2023-07-11T05:43:51.916Z,69.23
2023-07-11T05:46:37.203Z,67.60
2023-07-11T05:49:22.550Z,68.20
2023-07-11T05:52:08.193Z,66.99
2023-07-11T05:54:53.660Z,66.82
2023-07-11T05:57:38.866Z,65.17
2023-07-11T06:00:24.361Z,66.48
2023-07-11T06:03:09.846Z,66.73
2023-07-11T06:05:59.604Z,65.41
2023-07-11T06:08:45.653Z,66.01
2023-07-11T06:11:31.220Z,64.66
2023-07-11T06:14:18.048Z,65.17
2023-07-11T06:17:04.423Z,62.53
2023-07-11T06:19:49.873Z,64.14
2023-07-11T06:22:35.519Z,62.80
2023-07-11T06:25:20.950Z,62.14
2023-07-11T06:28:06.275Z,63.41
2023-07-11T06:30:52.096Z,59.24
2023-07-11T06:33:37.535Z,57.04
2023-07-11T06:36:22.981Z,60.60
2023-07-11T06:39:08.251Z,58.92
2023-07-11T06:41:53.402Z,57.92
2023-07-11T06:44:44.433Z,57.83
2023-07-11T06:47:30.989Z,54.81
2023-07-11T06:50:16.453Z,57.64
2023-07-11T06:53:02.661Z,56.43
2023-07-11T06:55:49.877Z,57.71
2023-07-11T06:58:35.205Z,55.53
2023-07-11T07:04:12.703Z,55.89
2023-07-11T07:06:58.477Z,54.74
2023-07-11T07:09:43.855Z,53.13
2023-07-11T07:12:29.549Z,50.69
2023-07-11T07:15:16.153Z,52.84
2023-07-11T07:18:01.391Z,50.84
2023-07-11T07:20:57.117Z,51.28
2023-07-11T07:23:53.388Z,51.64
2023-07-11T07:26:38.782Z,51.25
2023-07-11T07:29:25.207Z,51.66
2023-07-11T07:32:10.426Z,49.29
2023-07-11T07:34:55.948Z,48.80
2023-07-11T07:37:41.400Z,48.12
2023-07-11T07:40:26.592Z,46.86
2023-07-11T07:43:11.984Z,46.23
2023-07-11T07:45:59.679Z,46.33
2023-07-11T07:48:45.023Z,45.42
2023-07-11T07:51:30.468Z,47.29
2023-07-11T07:54:15.950Z,47.11
2023-07-11T07:57:01.699Z,47.65
2023-07-11T07:59:47.034Z,46.56
2023-07-11T08:02:33.201Z,44.15
2023-07-11T08:05:18.491Z,44.58
2023-07-11T08:08:05.857Z,44.72
2023-07-11T08:10:51.714Z,47.12
2023-07-11T08:13:49.070Z,42.79
2023-07-11T08:16:42.624Z,45.02
2023-07-11T08:19:28.259Z,44.90
2023-07-11T08:22:13.593Z,46.36
2023-07-11T08:24:59.170Z,46.30
2023-07-11T08:27:44.522Z,43.46
2023-07-11T08:30:30.007Z,45.78
2023-07-11T08:33:16.186Z,44.27
2023-07-11T08:36:01.646Z,44.67
2023-07-11T08:38:46.931Z,44.14
2023-07-11T08:41:53.516Z,45.14
2023-07-11T08:44:46.698Z,44.45
2023-07-11T08:47:37.831Z,42.73
2023-07-11T08:50:32.514Z,41.10
2023-07-11T08:53:25.810Z,42.43
2023-07-11T08:56:25.688Z,42.56
2023-07-11T08:59:36.206Z,39.69
2023-07-11T09:02:42.784Z,40.26
2023-07-11T09:05:27.895Z,41.81
2023-07-11T09:08:21.532Z,40.99
2023-07-11T09:11:13.058Z,38.67
2023-07-11T09:14:35.873Z,37.34
2023-07-11T09:17:33.025Z,36.75
2023-07-11T09:20:36.825Z,36.71
2023-07-11T09:23:43.567Z,35.54
2023-07-11T09:26:30.941Z,35.34
2023-07-11T09:29:18.180Z,34.39
2023-07-11T09:32:04.816Z,34.27
2023-07-11T09:34:51.080Z,34.31
2023-07-11T09:37:42.040Z,36.59
2023-07-11T09:40:33.865Z,34.32
2023-07-11T09:43:19.405Z,37.30
2023-07-11T09:46:12.760Z,34.77
2023-07-11T09:49:00.744Z,34.23
2023-07-11T09:51:55.172Z,34.35
2023-07-11T09:54:55.583Z,34.51
2023-07-11T09:57:51.172Z,34.00
2023-07-11T10:00:45.124Z,35.82
2023-07-11T10:03:33.004Z,34.59
2023-07-11T10:09:33.406Z,33.20
2023-07-11T10:12:25.423Z,34.58
2023-07-11T10:15:16.156Z,35.46
2023-07-11T10:18:01.348Z,35.04
2023-07-11T10:20:50.603Z,34.11
2023-07-11T10:23:36.529Z,33.37
2023-07-11T10:26:27.818Z,31.35
2023-07-11T10:29:25.022Z,33.69
2023-07-11T10:32:16.367Z,32.16
2023-07-11T10:35:05.186Z,31.98
2023-07-11T10:38:01.957Z,32.32
2023-07-11T10:40:50.657Z,30.82
2023-07-11T10:43:39.071Z,29.64
2023-07-11T10:46:27.388Z,31.53
2023-07-11T10:49:18.572Z,30.55
2023-07-11T10:52:14.519Z,29.72
2023-07-11T10:55:21.170Z,30.53
2023-07-11T10:58:06.559Z,29.63
2023-07-11T11:01:15.461Z,31.71
2023-07-11T11:04:22.180Z,29.12
2023-07-11T11:07:32.562Z,30.48
2023-07-11T11:10:42.670Z,30.22
2023-07-11T11:13:55.850Z,28.81
2023-07-11T11:17:12.970Z,28.48
2023-07-11T11:20:24.909Z,27.42
2023-07-11T11:23:41.531Z,28.67
2023-07-11T11:26:35.153Z,29.65
2023-07-11T11:29:42.388Z,28.38
2023-07-11T11:32:43.618Z,28.90
2023-07-11T11:35:29.385Z,25.93
2023-07-11T11:38:36.481Z,28.10
2023-07-11T11:41:33.530Z,27.84
2023-07-11T11:48:20.900Z,27.91
2023-07-11T11:50:40.865Z,27.94
2023-07-11T11:53:40.447Z,27.58
2023-07-11T11:56:28.345Z,27.79
2023-07-11T11:59:23.454Z,27.84
2023-07-11T12:02:17.159Z,28.90
2023-07-11T12:05:18.128Z,27.58
2023-07-11T12:08:26.657Z,28.84
2023-07-11T12:11:12.741Z,30.25
2023-07-11T12:14:20.703Z,28.91
2023-07-11T12:17:32.638Z,27.92
2023-07-11T12:20:26.391Z,27.68
2023-07-11T12:23:27.812Z,27.25
2023-07-11T12:26:26.153Z,26.27
2023-07-11T12:29:36.398Z,27.32
2023-07-11T12:32:35.299Z,26.95
2023-07-11T12:35:23.832Z,27.47
2023-07-11T12:38:24.004Z,28.42
2023-07-11T12:41:42.928Z,26.49
2023-07-11T12:44:35.649Z,28.25
2023-07-11T12:47:21.625Z,26.78
2023-07-11T12:50:21.689Z,27.78
2023-07-11T12:53:09.218Z,27.47
2023-07-11T12:55:56.657Z,27.74
2023-07-11T12:58:43.114Z,26.88
2023-07-11T13:01:32.834Z,28.79
2023-07-11T13:04:36.652Z,26.83
2023-07-11T13:07:25.961Z,27.00
2023-07-11T13:10:26.419Z,26.10
2023-07-11T13:13:13.148Z,27.27
2023-07-11T13:16:02.149Z,27.62
2023-07-11T13:18:49.582Z,26.62
2023-07-11T13:21:35.113Z,27.66
2023-07-11T13:24:29.618Z,27.24
2023-07-11T13:27:28.764Z,26.41
2023-07-11T13:30:37.456Z,27.53
2023-07-11T13:33:24.365Z,28.31
2023-07-11T13:39:13.516Z,27.02
2023-07-11T13:42:00.913Z,26.62
2023-07-11T13:44:49.041Z,26.88
2023-07-11T13:47:35.607Z,27.15
2023-07-11T13:50:24.327Z,26.11
2023-07-11T13:53:19.765Z,25.84
2023-07-11T13:56:05.353Z,25.68
2023-07-11T13:58:51.263Z,26.64
2023-07-11T14:01:41.616Z,27.02
2023-07-11T14:04:32.445Z,26.72
2023-07-11T14:07:17.588Z,27.07
2023-07-11T14:10:03.095Z,26.71
2023-07-11T14:12:48.642Z,27.98
2023-07-11T14:15:33.961Z,28.54
2023-07-11T14:18:19.270Z,27.54
2023-07-11T14:21:05.717Z,28.17
2023-07-11T14:23:51.196Z,28.43
2023-07-11T14:26:36.876Z,27.45
2023-07-11T14:29:29.703Z,27.18
2023-07-11T14:32:19.900Z,27.93
2023-07-11T14:35:06.158Z,28.14
2023-07-11T14:37:51.972Z,28.61
2023-07-11T14:40:37.184Z,28.92
2023-07-11T14:43:25.554Z,29.67
2023-07-11T14:46:10.807Z,28.93
2023-07-11T14:48:56.009Z,27.45
2023-07-11T14:51:41.725Z,27.48
2023-07-11T14:54:27.960Z,26.72
2023-07-11T14:57:16.312Z,26.26
2023-07-11T15:00:18.905Z,27.15
2023-07-11T15:03:19.573Z,27.39
2023-07-11T15:06:55.378Z,27.16
2023-07-11T15:18:29.059Z,27.86
2023-07-11T15:21:14.866Z,26.61
2023-07-11T15:24:00.367Z,25.64
2023-07-11T15:26:46.795Z,27.30
2023-07-11T15:29:32.017Z,26.35
2023-07-11T15:32:23.736Z,26.73
2023-07-11T15:35:21.224Z,27.36
2023-07-11T15:38:18.090Z,26.79
2023-07-11T15:41:07.826Z,26.98
2023-07-11T15:43:52.835Z,26.62
2023-07-11T15:46:38.155Z,26.51
2023-07-11T15:49:24.975Z,26.01
2023-07-11T15:52:10.150Z,26.40
2023-07-11T15:54:56.131Z,26.99
2023-07-11T15:57:44.161Z,26.53
2023-07-11T16:00:32.620Z,26.31
2023-07-11T16:03:20.701Z,26.67
2023-07-11T16:06:14.304Z,25.61
2023-07-11T16:08:59.689Z,26.93
2023-07-11T16:11:45.142Z,25.51
2023-07-11T16:14:30.332Z,26.71
2023-07-11T16:17:20.695Z,27.88
2023-07-11T16:20:18.617Z,27.93
2023-07-11T16:23:03.793Z,26.32
2023-07-11T16:25:50.130Z,26.98
2023-07-11T16:28:37.396Z,26.99
2023-07-11T16:31:24.901Z,27.47
2023-07-11T16:34:18.787Z,27.12
2023-07-11T16:37:10.349Z,27.87
2023-07-11T16:39:55.935Z,27.24
2023-07-11T16:42:41.570Z,27.64
2023-07-11T16:45:34.191Z,28.06
2023-07-11T16:48:28.425Z,27.31
2023-07-11T16:51:23.239Z,27.58
2023-07-11T16:54:21.234Z,27.20
2023-07-11T16:57:14.689Z,27.11
2023-07-11T17:00:00.313Z,27.63
2023-07-11T17:02:47.093Z,27.56
2023-07-11T17:05:33.487Z,27.44
2023-07-11T17:08:22.149Z,27.06
2023-07-11T17:11:09.956Z,27.05
2023-07-11T17:13:56.534Z,27.41
2023-07-11T17:16:52.032Z,28.28
2023-07-11T17:19:37.536Z,28.49
2023-07-11T17:22:24.144Z,28.42
2023-07-11T17:25:17.443Z,28.94
2023-07-11T17:28:03.364Z,28.47
2023-07-11T17:30:49.526Z,28.45
2023-07-11T17:33:36.203Z,29.50
2023-07-11T17:36:21.597Z,28.31
2023-07-11T17:39:19.629Z,29.30
2023-07-11T17:42:10.706Z,29.66
2023-07-11T17:44:57.099Z,29.81
2023-07-11T17:48:03.073Z,29.24
2023-07-11T17:50:49.971Z,29.62
2023-07-11T17:53:35.457Z,29.65
2023-07-11T17:56:21.038Z,28.94
2023-07-11T17:59:06.223Z,30.25
2023-07-11T18:01:51.653Z,29.94
2023-07-11T18:04:37.078Z,30.50
2023-07-11T18:07:31.050Z,30.71
2023-07-11T18:10:29.484Z,30.45
2023-07-11T18:13:14.638Z,29.99
2023-07-11T18:16:00.230Z,30.36
2023-07-11T18:18:45.876Z,30.19
2023-07-11T18:21:31.482Z,31.31
2023-07-11T18:24:17.094Z,32.02
2023-07-11T18:27:02.201Z,32.66
2023-07-11T18:29:49.225Z,33.12
2023-07-11T18:32:42.100Z,33.49
2023-07-11T18:35:27.634Z,34.24
2023-07-11T18:38:18.767Z,33.70
2023-07-11T18:41:04.519Z,33.90
2023-07-11T18:43:49.796Z,34.80
2023-07-11T18:46:35.499Z,34.83
2023-07-11T18:49:20.973Z,35.52
2023-07-11T18:52:17.735Z,35.54
2023-07-11T18:55:03.267Z,35.56
2023-07-11T18:57:49.908Z,36.36
2023-07-11T19:00:44.198Z,36.48
2023-07-11T19:03:29.418Z,37.13
2023-07-11T19:06:17.345Z,37.77
2023-07-11T19:09:02.665Z,38.33
2023-07-11T19:11:47.954Z,39.56
2023-07-11T19:14:33.134Z,39.85
2023-07-11T19:17:40.581Z,40.15
2023-07-11T19:20:29.510Z,40.91
2023-07-11T19:23:20.594Z,40.76
2023-07-11T19:26:13.782Z,41.56
2023-07-11T19:28:59.208Z,42.34
2023-07-11T19:31:44.759Z,43.39
2023-07-11T19:34:30.293Z,42.92
2023-07-11T19:37:18.019Z,42.40
2023-07-11T19:40:05.183Z,44.12
2023-07-11T19:42:50.519Z,44.64
2023-07-11T19:45:42.547Z,45.87
2023-07-11T19:48:28.375Z,46.85
2023-07-11T19:51:14.652Z,47.21
2023-07-11T19:54:00.147Z,47.40
2023-07-11T19:56:45.567Z,47.44
2023-07-11T19:59:31.199Z,47.26
2023-07-11T20:02:17.703Z,46.98
2023-07-11T20:05:03.505Z,47.14
2023-07-11T20:07:49.044Z,47.64
2023-07-11T20:10:36.600Z,48.23
2023-07-11T20:13:22.969Z,48.55
2023-07-11T20:16:24.685Z,49.03
2023-07-11T20:19:13.407Z,48.49
2023-07-11T20:21:58.802Z,49.49
2023-07-11T20:24:47.639Z,48.90
2023-07-11T20:27:33.492Z,49.50
2023-07-11T20:30:22.559Z,48.00
2023-07-11T20:33:12.692Z,48.53
2023-07-11T20:36:13.450Z,47.56
2023-07-11T20:38:59.216Z,47.88
2023-07-11T20:41:44.284Z,48.53
2023-07-11T20:44:29.822Z,48.82
2023-07-11T20:47:14.967Z,49.56
2023-07-11T20:50:00.212Z,49.71
2023-07-11T20:52:47.302Z,50.44
2023-07-11T20:55:34.843Z,50.46
2023-07-11T20:58:20.168Z,50.69
2023-07-11T21:01:05.589Z,50.97
2023-07-11T21:03:51.141Z,51.16
2023-07-11T21:06:39.613Z,51.03
2023-07-11T21:09:24.619Z,51.21
2023-07-11T21:12:13.243Z,51.48
2023-07-11T21:14:58.601Z,51.09
2023-07-11T21:17:43.855Z,50.99
2023-07-11T21:20:32.334Z,50.97
2023-07-11T21:23:18.208Z,50.47
2023-07-11T21:26:12.762Z,50.80
2023-07-11T21:28:58.877Z,50.55
2023-07-11T21:31:44.673Z,50.87
2023-07-11T21:34:30.661Z,50.59
2023-07-11T21:37:16.131Z,50.37
2023-07-11T21:40:01.493Z,49.57
2023-07-11T21:42:48.116Z,49.23
2023-07-11T21:45:37.923Z,49.40
2023-07-11T21:48:28.094Z,50.06
2023-07-11T21:51:15.159Z,50.31
2023-07-11T21:54:00.586Z,50.42
2023-07-11T21:56:46.203Z,50.33
2023-07-11T21:59:31.508Z,50.86
2023-07-11T22:02:16.778Z,51.19
2023-07-11T22:05:02.605Z,51.07
2023-07-11T22:07:48.354Z,50.21
2023-07-11T22:10:35.162Z,50.10
2023-07-11T22:13:24.216Z,50.77
2023-07-11T22:16:24.834Z,51.04
2023-07-11T22:19:13.774Z,52.18
2023-07-11T22:22:05.090Z,52.19
2023-07-11T22:24:51.528Z,51.27
2023-07-11T22:27:36.982Z,53.50
2023-07-11T22:30:27.414Z,53.40
2023-07-11T22:33:15.083Z,53.56
2023-07-11T22:36:00.566Z,54.35
2023-07-11T22:38:46.014Z,54.09
2023-07-11T22:41:31.413Z,53.32
2023-07-11T22:44:17.231Z,54.24
2023-07-11T22:47:02.890Z,54.57
2023-07-11T22:49:48.308Z,54.43
2023-07-11T22:52:34.086Z,55.58
2023-07-11T22:55:21.809Z,58.33
2023-07-11T22:58:16.034Z,59.24
2023-07-11T23:01:06.826Z,59.89
2023-07-11T23:03:52.720Z,58.89
2023-07-11T23:06:39.706Z,59.26
2023-07-11T23:09:24.881Z,59.69
2023-07-11T23:12:12.586Z,60.67
2023-07-11T23:14:57.918Z,61.39
2023-07-11T23:17:43.788Z,63.96
2023-07-11T23:20:29.560Z,65.53
2023-07-11T23:23:14.966Z,65.39
2023-07-11T23:26:00.619Z,66.29
2023-07-11T23:28:46.335Z,68.14
2023-07-11T23:31:33.354Z,69.09
2023-07-11T23:34:18.359Z,71.00
2023-07-11T23:37:03.935Z,72.09
2023-07-11T23:39:49.135Z,71.59
2023-07-11T23:42:34.575Z,70.77
2023-07-11T23:45:20.346Z,72.28
2023-07-11T23:48:17.579Z,72.59
2023-07-11T23:51:03.079Z,70.65
2023-07-11T23:53:50.518Z,71.28
2023-07-11T23:56:36.002Z,71.50
2023-07-11T23:59:21.331Z,69.85
